Time;durP1;ratioP1;P1;durP2;ratioP2;P2;SDS_P1;SDS_P2;PMS_P1;PMS_P2;Temp;Humidity;BMP_temperature;BMP_pressure;BME280_temperature;BME280_humidity;BME280_pressure;Samples;Min_cycle;Max_cycle;Signal;HPM_P1;HPM_P2
2022/08/24 00:00:54;;;;;;;;;;;;;;;14.16;94.55;98474.38;5063405;28;20197;-69
2022/08/24 00:03:20;;;;;;;;;;;;;;;14.16;94.12;98484.97;5063659;28;20222;-69
2022/08/24 00:05:46;;;;;;;;;;;;;;;14.12;93.84;98484.25;5052276;28;20197;-69
2022/08/24 00:08:11;;;;;;;;;;;;;;;14.03;93.44;98487.19;5043938;28;19909;-69
2022/08/24 00:10:37;;;;;;;;;;;;;;;14.04;94.39;98485.41;5042847;28;19915;-69
2022/08/24 00:13:02;;;;;;;;;;;;;;;13.97;94.22;98489.19;5043934;28;19947;-69
2022/08/24 00:15:27;;;;;;;;;;;;;;;13.95;94.70;98486.59;5052027;28;19908;-69
2022/08/24 00:17:53;;;;;;;;;;;;;;;13.96;95.26;98498.06;5063261;28;19908;-69
2022/08/24 00:20:18;;;;;;;;;;;;;;;13.88;94.86;98494.78;5048995;28;19913;-69
2022/08/24 00:22:43;;;;;;;;;;;;;;;13.93;95.63;98498.16;5044110;28;20197;-69
2022/08/24 00:25:10;;;;;;;;;;;;;;;13.91;95.86;98494.69;5044936;28;20151;-69
2022/08/24 00:27:35;;;;;;;;;;;;;;;13.77;95.47;98486.38;5043690;28;19980;-69
2022/08/24 00:30:03;;;;;;;;;;;;;;;13.71;95.44;98491.88;5060078;28;19919;-69
2022/08/24 00:32:28;;;;;;;;;;;;;;;13.65;96.66;98492.06;5063195;28;19995;-68
2022/08/24 00:34:54;;;;;;;;;;;;;;;13.62;95.32;98486.88;5062025;28;19909;-68
2022/08/24 00:37:19;;;;;;;;;;;;;;;13.66;96.37;98496.44;5063767;28;20135;-68
2022/08/24 00:39:44;;;;;;;;;;;;;;;13.72;96.21;98497.13;5065130;28;19913;-68
2022/08/24 00:42:10;;;;;;;;;;;;;;;13.64;95.91;98495.66;5065570;28;19916;-68
2022/08/24 00:44:35;;;;;;;;;;;;;;;13.54;96.44;98496.88;5057892;28;19909;-68
2022/08/24 00:47:02;;;;;;;;;;;;;;;13.65;96.95;98492.06;5047049;28;19905;-68
2022/08/24 00:49:27;;;;;;;;;;;;;;;13.63;96.47;98499.19;5047019;28;19951;-68
2022/08/24 00:51:57;;;;;;;;;;;;;;;13.41;96.25;98500.84;5047067;28;19904;-68
2022/08/24 00:54:24;;;;;;;;;;;;;;;13.41;96.94;98503.50;5050885;28;19955;-68
2022/08/24 00:56:52;;;;;;;;;;;;;;;13.44;96.69;98503.38;5067133;28;20149;-68
2022/08/24 00:59:21;;;;;;;;;;;;;;;13.43;96.96;98509.56;5066798;28;19905;-68
2022/08/24 01:01:47;;;;;;;;;;;;;;;13.30;96.89;98492.38;5067038;28;19911;-68
2022/08/24 01:04:17;;;;;;;;;;;;;;;13.34;97.46;98491.34;5056663;28;19909;-68
2022/08/24 01:06:42;;;;;;;;;;;;;;;13.43;97.77;98496.34;5066194;28;19908;-68
2022/08/24 01:09:07;;;;;;;;;;;;;;;13.37;97.01;98488.63;5066286;28;20082;-68
2022/08/24 01:11:34;;;;;;;;;;;;;;;13.26;96.68;98490.75;5065916;28;20228;-68
2022/08/24 01:14:01;;;;;;;;;;;;;;;13.30;97.17;98492.38;5047960;28;20074;-68
2022/08/24 01:19:15;;;;;;;;;;;;;;;13.16;96.94;98492.81;5065694;28;19947;-68
2022/08/24 01:22:00;;;;;;;;;;;;;;;13.11;97.69;98493.88;5065950;28;19908;-68
2022/08/24 01:24:25;;;;;;;;;;;;;;;13.21;98.06;98492.66;5053826;28;19909;-68
2022/08/24 01:26:50;;;;;;;;;;;;;;;13.23;98.37;98488.22;5046282;28;19984;-68
2022/08/24 01:29:18;;;;;;;;;;;;;;;13.18;98.67;98491.00;5055824;28;19913;-68
2022/08/24 01:31:44;;;;;;;;;;;;;;;13.07;98.10;98482.56;5065562;28;20250;-68
2022/08/24 01:34:10;;;;;;;;;;;;;;;12.96;99.77;98487.25;5064270;28;19909;-68
2022/08/24 01:36:40;;;;;;;;;;;;;;;12.92;100.00;98489.13;5065632;28;19936;-68
2022/08/24 01:39:21;;;;;;;;;;;;;;;12.91;100.00;98487.41;5065558;28;19915;-68
2022/08/24 01:41:46;;;;;;;;;;;;;;;13.00;99.76;98491.56;5064197;28;19909;-68
2022/08/24 01:44:12;;;;;;;;;;;;;;;12.88;99.16;98482.22;5051678;28;19909;-68
2022/08/24 01:46:41;;;;;;;;;;;;;;;12.90;99.60;98490.97;5047419;28;19909;-68
2022/08/24 01:49:06;;;;;;;;;;;;;;;12.98;99.44;98488.94;5044768;28;19913;-68
2022/08/24 01:51:32;;;;;;;;;;;;;;;12.88;98.70;98487.50;5057416;28;19909;-68
2022/08/24 01:53:58;;;;;;;;;;;;;;;12.94;98.94;98487.31;5053660;28;19944;-68
2022/08/24 01:56:24;;;;;;;;;;;;;;;12.88;98.69;98491.94;5045830;28;20144;-68
2022/08/24 01:58:49;;;;;;;;;;;;;;;12.99;98.51;98488.09;5045786;28;19909;-68
2022/08/24 02:01:16;;;;;;;;;;;;;;;12.95;97.53;98486.38;5045711;28;19913;-68
2022/08/24 02:03:42;;;;;;;;;;;;;;;12.83;97.46;98478.88;5054724;28;19908;-68
2022/08/24 02:06:07;;;;;;;;;;;;;;;12.77;97.87;98484.34;5064987;28;19908;-68
2022/08/24 02:08:34;;;;;;;;;;;;;;;12.64;98.91;98492.66;5064930;28;19912;-68
2022/08/24 02:11:00;;;;;;;;;;;;;;;12.59;100.00;98500.72;5064634;28;19954;-68
2022/08/24 02:13:26;;;;;;;;;;;;;;;12.64;99.87;98501.47;5057949;28;19908;-68
2022/08/24 02:15:51;;;;;;;;;;;;;;;12.62;100.00;98505.91;5045491;28;20113;-68
2022/08/24 02:18:17;;;;;;;;;;;;;;;12.65;100.00;98504.94;5058416;28;19909;-68
2022/08/24 02:20:42;;;;;;;;;;;;;;;12.65;99.86;98500.53;5064784;28;19909;-68
2022/08/24 02:23:07;;;;;;;;;;;;;;;12.79;100.00;98505.41;5060357;28;19909;-68
2022/08/24 02:25:32;;;;;;;;;;;;;;;12.89;99.96;98505.09;5060620;28;19916;-68
2022/08/24 02:27:59;;;;;;;;;;;;;;;12.81;98.90;98512.38;5064315;28;19915;-68
2022/08/24 02:30:24;;;;;;;;;;;;;;;12.56;97.34;98506.09;5064406;28;20148;-68
2022/08/24 02:32:49;;;;;;;;;;;;;;;12.39;98.57;98503.09;5062925;28;19909;-68
2022/08/24 02:35:15;;;;;;;;;;;;;;;12.36;99.58;98508.44;5045136;28;19941;-68
2022/08/24 02:37:40;;;;;;;;;;;;;;;12.38;99.28;98504.00;5045120;28;19915;-68
2022/08/24 02:40:06;;;;;;;;;;;;;;;12.35;98.84;98506.72;5045026;28;19916;-68
2022/08/24 02:42:31;;;;;;;;;;;;;;;12.34;99.96;98504.97;5052988;28;19908;-68
2022/08/24 02:44:57;;;;;;;;;;;;;;;12.32;100.00;98509.44;5044953;28;19909;-68
2022/08/24 02:47:22;;;;;;;;;;;;;;;12.42;100.00;98518.84;5044892;28;19948;-68
2022/08/24 02:49:47;;;;;;;;;;;;;;;12.34;100.00;98510.25;5044867;28;20247;-68
2022/08/24 02:52:13;;;;;;;;;;;;;;;12.36;100.00;98511.09;5060951;28;19908;-68
2022/08/24 02:54:38;;;;;;;;;;;;;;;12.35;100.00;98514.66;5046932;28;19909;-68
2022/08/24 02:57:04;;;;;;;;;;;;;;;12.46;100.00;98511.66;5055877;28;19979;-68
2022/08/24 02:59:29;;;;;;;;;;;;;;;12.42;99.71;98518.84;5064106;28;20173;-68
2022/08/24 03:01:54;;;;;;;;;;;;;;;12.42;100.00;98515.31;5063705;28;19979;-68
2022/08/24 03:04:19;;;;;;;;;;;;;;;12.32;99.88;98517.38;5064284;28;19912;-68
2022/08/24 03:06:45;;;;;;;;;;;;;;;12.24;99.26;98506.16;5062684;28;19931;-68
2022/08/24 03:09:10;;;;;;;;;;;;;;;12.23;99.93;98517.63;5063706;28;19912;-68
2022/08/24 03:11:35;;;;;;;;;;;;;;;12.31;100.00;98520.88;5061434;28;20149;-68
2022/08/24 03:14:01;;;;;;;;;;;;;;;12.36;100.00;98511.09;5044531;28;20016;-68
2022/08/24 03:16:27;;;;;;;;;;;;;;;12.28;100.00;98515.69;5058228;28;19909;-68
2022/08/24 03:18:52;;;;;;;;;;;;;;;12.14;100.00;98515.22;5064094;28;20144;-68
2022/08/24 03:21:17;;;;;;;;;;;;;;;12.07;100.00;98508.41;5060891;28;19908;-68
2022/08/24 03:23:43;;;;;;;;;;;;;;;12.04;100.00;98508.47;5063517;28;19912;-68
2022/08/24 03:26:08;;;;;;;;;;;;;;;12.12;100.00;98514.38;5063756;28;20109;-68
2022/08/24 03:28:33;;;;;;;;;;;;;;;12.06;100.00;98503.16;5063534;28;19919;-68
2022/08/24 03:30:59;;;;;;;;;;;;;;;12.06;100.00;98513.72;5045807;28;19913;-68
2022/08/24 03:33:24;;;;;;;;;;;;;;;12.09;100.00;98509.19;5045471;28;20144;-68
2022/08/24 03:35:49;;;;;;;;;;;;;;;11.98;100.00;98506.00;5044280;28;19951;-68
2022/08/24 03:38:15;;;;;;;;;;;;;;;12.03;100.00;98509.38;5044597;28;19912;-68
2022/08/24 03:40:40;;;;;;;;;;;;;;;12.14;100.00;98509.06;5063612;28;19908;-68
2022/08/24 03:43:05;;;;;;;;;;;;;;;12.15;100.00;98514.31;5063581;28;19915;-68
2022/08/24 03:45:31;;;;;;;;;;;;;;;12.12;100.00;98509.13;5062233;28;19954;-68
2022/08/24 03:47:56;;;;;;;;;;;;;;;12.02;100.00;98505.00;5061869;28;19912;-68
2022/08/24 03:50:22;;;;;;;;;;;;;;;11.99;100.00;98507.72;5044050;28;19972;-68
2022/08/24 03:52:47;;;;;;;;;;;;;;;12.11;100.00;98507.41;5044305;28;20101;-68
2022/08/24 03:55:13;;;;;;;;;;;;;;;12.17;100.00;98504.59;5044147;28;19912;-68
2022/08/24 03:57:38;;;;;;;;;;;;;;;12.09;100.00;98493.38;5044021;28;19905;-68
2022/08/24 04:00:06;;;;;;;;;;;;;;;11.91;100.00;98504.44;5044039;28;19905;-68
2022/08/24 04:02:32;;;;;;;;;;;;;;;11.77;99.61;98509.19;5044019;28;20105;-68
2022/08/24 04:04:57;;;;;;;;;;;;;;;11.68;100.00;98513.84;5044190;28;19912;-68
2022/08/24 04:07:23;;;;;;;;;;;;;;;11.74;100.00;98511.91;5043996;28;19932;-68
2022/08/24 04:09:48;;;;;;;;;;;;;;;11.82;100.00;98509.06;5044118;28;20282;-68
2022/08/24 04:12:14;;;;;;;;;;;;;;;11.94;100.00;98512.28;5045007;28;19909;-68
2022/08/24 04:14:39;;;;;;;;;;;;;;;12.05;100.00;98512.84;5047982;28;19904;-68
2022/08/24 04:17:05;;;;;;;;;;;;;;;12.01;100.00;98505.91;5047928;28;19912;-68
2022/08/24 04:19:31;;;;;;;;;;;;;;;11.99;100.00;98506.88;5046416;28;19960;-68
2022/08/24 04:21:57;;;;;;;;;;;;;;;11.79;100.00;98519.69;5055338;28;20116;-68
2022/08/24 04:24:23;;;;;;;;;;;;;;;11.80;100.00;98517.03;5066858;28;19904;-68
2022/08/24 04:26:48;;;;;;;;;;;;;;;11.91;100.00;98522.91;5067015;28;19905;-68
2022/08/24 04:29:15;;;;;;;;;;;;;;;11.97;100.00;98524.50;5066442;28;20196;-68
2022/08/24 04:31:41;;;;;;;;;;;;;;;12.11;100.00;98523.22;5065039;28;19912;-68
2022/08/24 04:34:07;;;;;;;;;;;;;;;12.25;100.00;98522.84;5066882;28;19905;-68
2022/08/24 04:36:32;;;;;;;;;;;;;;;12.20;100.00;98522.97;5062703;28;19916;-71
2022/08/24 04:38:59;;;;;;;;;;;;;;;12.12;99.96;98524.94;5062585;28;19909;-69
2022/08/24 04:41:25;;;;;;;;;;;;;;;12.09;100.00;98525.03;5067474;28;20188;-69
2022/08/24 04:43:50;;;;;;;;;;;;;;;12.17;100.00;98523.06;5067435;28;19904;-69
2022/08/24 04:46:17;;;;;;;;;;;;;;;12.04;100.00;98526.94;5067397;28;19909;-69
2022/08/24 04:48:43;;;;;;;;;;;;;;;11.98;100.00;98535.00;5067293;28;19987;-69
2022/08/24 04:51:10;;;;;;;;;;;;;;;12.19;100.00;98531.81;5067038;28;19911;-69
2022/08/24 04:53:35;;;;;;;;;;;;;;;12.17;100.00;98528.34;5067257;28;19909;-69
2022/08/24 04:56:01;;;;;;;;;;;;;;;12.26;99.86;98540.41;5066956;28;19927;-69
2022/08/24 04:58:27;;;;;;;;;;;;;;;12.35;99.49;98543.69;5067144;28;19912;-69
2022/08/24 05:00:53;;;;;;;;;;;;;;;12.42;99.32;98544.34;5066809;28;20128;-69
2022/08/24 05:03:18;;;;;;;;;;;;;;;12.49;99.59;98548.53;5066754;28;19905;-69
2022/08/24 05:05:45;;;;;;;;;;;;;;;12.59;99.14;98553.53;5066764;28;19905;-69
2022/08/24 05:08:11;;;;;;;;;;;;;;;12.60;99.30;98555.25;5066627;28;19905;-69
2022/08/24 05:10:38;;;;;;;;;;;;;;;12.69;99.91;98549.72;5066604;28;19912;-69
2022/08/24 05:13:04;;;;;;;;;;;;;;;12.75;98.17;98565.38;5066608;28;19912;-69
2022/08/24 05:15:30;;;;;;;;;;;;;;;12.84;97.18;98569.50;5066552;28;19905;-69
2022/08/24 05:17:55;;;;;;;;;;;;;;;13.09;96.95;98575.00;5066445;28;19927;-69
2022/08/24 05:20:20;;;;;;;;;;;;;;;13.35;96.42;98575.91;5066498;28;19905;-69
2022/08/24 05:22:46;;;;;;;;;;;;;;;14.09;93.77;98579.63;5066299;28;19912;-69
2022/08/24 05:25:11;;;;;;;;;;;;;;;14.57;89.87;98577.06;5066194;28;19905;-69
2022/08/24 05:27:36;;;;;;;;;;;;;;;14.66;88.28;98576.72;5066275;28;19961;-69
2022/08/24 05:30:02;;;;;;;;;;;;;;;14.89;87.04;98582.03;5066002;28;19955;-69
2022/08/24 05:32:27;;;;;;;;;;;;;;;14.88;86.47;98581.16;5066500;28;19912;-69
2022/08/24 05:34:52;;;;;;;;;;;;;;;15.79;83.66;98577.63;5066245;28;20139;-69
2022/08/24 05:37:18;;;;;;;;;;;;;;;16.66;80.12;98582.69;5066199;28;19967;-69
2022/08/24 05:39:43;;;;;;;;;;;;;;;16.82;77.77;98577.53;5066167;28;19967;-69
2022/08/24 05:42:09;;;;;;;;;;;;;;;16.75;77.56;98582.28;5066018;28;19943;-69
2022/08/24 05:44:34;;;;;;;;;;;;;;;17.16;77.18;98583.94;5066071;28;19951;-69
2022/08/24 05:46:59;;;;;;;;;;;;;;;16.91;76.58;98585.97;5066024;28;19971;-69
2022/08/24 05:49:25;;;;;;;;;;;;;;;16.78;78.32;98582.16;5065839;28;19916;-69
2022/08/24 05:51:51;;;;;;;;;;;;;;;16.96;78.06;98586.63;5066081;28;19905;-69
2022/08/24 05:54:17;;;;;;;;;;;;;;;17.37;77.82;98586.50;5066093;28;20100;-69
2022/08/24 05:56:43;;;;;;;;;;;;;;;18.73;73.91;98594.75;5065805;28;19905;-69
2022/08/24 05:59:09;;;;;;;;;;;;;;;19.43;70.07;98590.03;5065720;28;19912;-69
2022/08/24 06:01:34;;;;;;;;;;;;;;;20.23;67.13;98601.47;5065708;28;20220;-69
2022/08/24 06:04:00;;;;;;;;;;;;;;;20.54;64.58;98594.19;5065677;28;19904;-69
2022/08/24 06:06:25;;;;;;;;;;;;;;;21.09;63.15;98600.63;5065571;28;19904;-69
2022/08/24 06:08:53;;;;;;;;;;;;;;;21.13;62.59;98607.50;5065527;28;19947;-69
2022/08/24 06:11:24;;;;;;;;;;;;;;;21.85;61.94;98614.53;5065485;28;19904;-69
2022/08/24 06:13:51;;;;;;;;;;;;;;;22.75;59.30;98619.19;5065521;28;19909;-69
2022/08/24 06:16:16;;;;;;;;;;;;;;;22.93;57.97;98618.78;5065652;28;19904;-69
2022/08/24 06:18:41;;;;;;;;;;;;;;;22.71;57.78;98614.97;5065376;28;20242;-69
2022/08/24 06:21:11;;;;;;;;;;;;;;;23.58;57.01;98616.84;5065321;28;20196;-69
2022/08/24 06:23:37;;;;;;;;;;;;;;;24.23;55.61;98629.03;5065186;28;19904;-69
2022/08/24 06:28:47;;;;;;;;;;;;;;;25.29;53.63;98633.34;5065032;28;19943;-69
2022/08/24 06:31:13;;;;;;;;;;;;;;;25.53;52.48;98632.41;5064982;28;19917;-69
2022/08/24 06:33:38;;;;;;;;;;;;;;;25.30;52.15;98626.97;5065093;28;19939;-69
2022/08/24 06:36:03;;;;;;;;;;;;;;;25.54;52.45;98629.59;5064412;28;19912;-69
2022/08/24 06:38:29;;;;;;;;;;;;;;;25.98;50.54;98639.53;5065276;28;19972;-69
2022/08/24 06:40:55;;;;;;;;;;;;;;;26.29;51.24;98638.72;5065026;28;19904;-69
2022/08/24 06:43:20;;;;;;;;;;;;;;;27.15;47.99;98643.03;5064936;28;19909;-69
2022/08/24 06:45:45;;;;;;;;;;;;;;;26.68;50.00;98640.81;5064878;28;20215;-69
2022/08/24 06:48:10;;;;;;;;;;;;;;;27.23;48.34;98643.22;5064839;28;19960;-69
2022/08/24 06:50:37;;;;;;;;;;;;;;;27.98;48.29;98646.47;5064722;28;19915;-69
2022/08/24 06:53:02;;;;;;;;;;;;;;;28.07;47.75;98646.53;5064795;28;19912;-69
2022/08/24 06:55:27;;;;;;;;;;;;;;;27.75;47.71;98635.00;5064717;28;20104;-69
2022/08/24 06:57:53;;;;;;;;;;;;;;;28.35;46.59;98632.19;5064728;28;19936;-69
2022/08/24 07:00:18;;;;;;;;;;;;;;;28.89;45.46;98637.94;5064605;28;19911;-70
2022/08/24 07:02:44;;;;;;;;;;;;;;;29.40;44.88;98634.03;5064659;28;19950;-70
2022/08/24 07:05:09;;;;;;;;;;;;;;;29.31;45.17;98630.38;5064562;28;19912;-70
2022/08/24 07:07:34;;;;;;;;;;;;;;;29.26;43.44;98620.97;5064512;28;19967;-70
2022/08/24 07:10:00;;;;;;;;;;;;;;;28.22;46.93;98615.34;5064427;28;20141;-70
2022/08/24 07:12:25;;;;;;;;;;;;;;;28.84;45.99;98621.28;5064368;28;19911;-70
2022/08/24 07:14:51;;;;;;;;;;;;;;;29.21;45.66;98624.94;5064702;28;19911;-70
2022/08/24 07:17:17;;;;;;;;;;;;;;;29.49;44.61;98627.75;5064409;28;19928;-70
2022/08/24 07:19:44;;;;;;;;;;;;;;;29.27;45.52;98628.09;5064323;28;19909;-70
2022/08/24 07:22:10;;;;;;;;;;;;;;;29.73;44.48;98625.44;5064316;28;19905;-70
2022/08/24 07:24:35;;;;;;;;;;;;;;;30.07;44.10;98631.94;5064310;28;19905;-70
2022/08/24 07:27:00;;;;;;;;;;;;;;;30.60;43.12;98638.38;5064207;28;19936;-70
2022/08/24 07:29:25;;;;;;;;;;;;;;;30.81;42.46;98628.91;5064170;28;19911;-70
2022/08/24 07:31:51;;;;;;;;;;;;;;;30.87;43.05;98635.59;5064085;28;19920;-70
2022/08/24 07:34:16;;;;;;;;;;;;;;;31.14;41.18;98635.50;5064284;28;19975;-70
2022/08/24 07:36:41;;;;;;;;;;;;;;;31.21;40.31;98625.69;5064191;28;19905;-70
2022/08/24 07:39:07;;;;;;;;;;;;;;;31.30;39.74;98622.03;5064162;28;19904;-70
2022/08/24 07:41:36;;;;;;;;;;;;;;;32.28;41.37;98636.88;5064071;28;19944;-70
2022/08/24 07:44:01;;;;;;;;;;;;;;;31.90;37.56;98621.06;5064193;28;19905;-70
2022/08/24 07:46:26;;;;;;;;;;;;;;;31.97;41.31;98633.00;5065086;28;19940;-70
2022/08/24 07:48:51;;;;;;;;;;;;;;;32.34;35.90;98625.38;5068155;28;19909;-70
2022/08/24 07:51:18;;;;;;;;;;;;;;;32.10;38.20;98622.50;5068220;28;19912;-70
2022/08/24 07:53:43;;;;;;;;;;;;;;;32.33;40.53;98629.09;5068074;28;19904;-70
2022/08/24 07:56:09;;;;;;;;;;;;;;;33.03;38.73;98633.16;5068063;28;19943;-70
2022/08/24 07:58:35;;;;;;;;;;;;;;;33.62;35.79;98631.94;5068056;28;19943;-70
2022/08/24 08:01:00;;;;;;;;;;;;;;;33.61;34.80;98630.22;5068030;28;19905;-70
2022/08/24 08:03:26;;;;;;;;;;;;;;;34.46;33.65;98641.22;5068022;28;19912;-70
2022/08/24 08:05:58;;;;;;;;;;;;;;;35.03;33.74;98644.47;5068154;28;19904;-70
2022/08/24 08:08:24;;;;;;;;;;;;;;;34.97;32.58;98640.56;5067867;28;19905;-70
2022/08/24 08:10:50;;;;;;;;;;;;;;;35.02;33.13;98654.56;5067789;28;19905;-69
2022/08/24 08:13:15;;;;;;;;;;;;;;;34.72;32.90;98648.06;5067749;28;20192;-69
2022/08/24 08:15:40;;;;;;;;;;;;;;;35.45;33.93;98651.13;5067704;28;20196;-70
2022/08/24 08:18:06;;;;;;;;;;;;;;;35.10;32.57;98651.75;5067656;28;19905;-70
2022/08/24 08:20:32;;;;;;;;;;;;;;;35.39;31.80;98635.44;5067608;28;19979;-70
2022/08/24 08:25:40;;;;;;;;;;;;;;;34.10;32.44;98635.38;5067545;28;19912;-69
2022/08/24 08:28:06;;;;;;;;;;;;;;;34.09;32.35;98638.28;5067435;28;20108;-69
2022/08/24 08:30:31;;;;;;;;;;;;;;;34.69;30.91;98631.16;5067262;28;19947;-69
2022/08/24 08:32:57;;;;;;;;;;;;;;;35.11;31.37;98641.66;5067454;28;20104;-69
2022/08/24 08:35:22;;;;;;;;;;;;;;;36.19;31.04;98651.00;5067374;28;19939;-69
2022/08/24 08:37:48;;;;;;;;;;;;;;;36.23;30.82;98646.00;5067279;28;20236;-69
2022/08/24 08:40:31;;;;;;;;;;;;;;;34.74;31.58;98646.00;5067227;28;19912;-69
2022/08/24 08:43:04;;;;;;;;;;;;;;;35.04;31.58;98641.53;5067270;28;19935;-69
2022/08/24 08:45:32;;;;;;;;;;;;;;;35.35;30.47;98638.75;5067156;28;19905;-69
2022/08/24 08:48:16;;;;;;;;;;;;;;;35.41;31.36;98643.47;5067006;28;19936;-69
2022/08/24 08:50:41;;;;;;;;;;;;;;;34.86;31.35;98643.75;5067298;28;19909;-70
2022/08/24 08:53:16;;;;;;;;;;;;;;;34.52;31.29;98635.03;5067038;28;19927;-70
2022/08/24 08:56:01;;;;;;;;;;;;;;;35.63;30.73;98643.44;5066983;28;19912;-70
2022/08/24 08:58:39;;;;;;;;;;;;;;;36.11;30.23;98648.38;5065861;28;19975;-70
2022/08/24 09:01:27;;;;;;;;;;;;;;;35.66;29.85;98637.59;5066862;28;20100;-70
2022/08/24 09:03:52;;;;;;;;;;;;;;;33.87;30.04;98623.53;5066717;28;19904;-70
2022/08/24 09:06:26;;;;;;;;;;;;;;;33.47;30.92;98630.94;5066880;28;19905;-70
2022/08/24 09:09:04;;;;;;;;;;;;;;;33.81;31.05;98631.53;5066673;28;19916;-70
2022/08/24 09:11:47;;;;;;;;;;;;;;;33.16;31.20;98633.50;5066943;28;19912;-70
2022/08/24 09:14:31;;;;;;;;;;;;;;;33.08;31.79;98629.94;5066619;28;19904;-70
2022/08/24 09:17:15;;;;;;;;;;;;;;;33.43;31.21;98629.59;5066575;28;19905;-70
2022/08/24 09:19:48;;;;;;;;;;;;;;;34.34;30.88;98642.63;5066517;28;20219;-70
2022/08/24 09:22:15;;;;;;;;;;;;;;;34.51;30.15;98639.66;5066742;28;19905;-70
2022/08/24 09:24:50;;;;;;;;;;;;;;;34.15;29.50;98632.97;5066409;28;19935;-70
2022/08/24 09:27:18;;;;;;;;;;;;;;;34.67;29.65;98634.09;5066419;28;20197;-70
2022/08/24 09:29:57;;;;;;;;;;;;;;;35.56;29.14;98647.09;5066146;28;19915;-70
2022/08/24 09:32:31;;;;;;;;;;;;;;;34.96;29.04;98634.25;5066321;28;19912;-70
2022/08/24 09:35:00;;;;;;;;;;;;;;;34.81;28.69;98636.06;5066524;28;19912;-70
2022/08/24 09:37:25;;;;;;;;;;;;;;;33.63;30.42;98615.34;5066262;28;19904;-70
2022/08/24 09:40:02;;;;;;;;;;;;;;;34.00;30.18;98620.22;5066379;28;19911;-70
2022/08/24 09:42:46;;;;;;;;;;;;;;;35.07;28.75;98632.97;5066360;28;20145;-70
2022/08/24 09:45:33;;;;;;;;;;;;;;;35.36;27.55;98616.66;5066047;28;19963;-70
2022/08/24 09:48:02;;;;;;;;;;;;;;;35.36;27.28;98629.50;5065965;28;20151;-70
2022/08/24 09:50:46;;;;;;;;;;;;;;;35.39;28.42;98631.88;5065802;28;19912;-70
2022/08/24 09:53:29;;;;;;;;;;;;;;;35.10;27.90;98618.91;5065934;28;19909;-70
2022/08/24 09:56:00;;;;;;;;;;;;;;;35.25;27.81;98617.06;5065879;28;19905;-70
2022/08/24 09:58:31;;;;;;;;;;;;;;;35.66;26.69;98621.16;5065811;28;19905;-70
2022/08/24 10:01:16;;;;;;;;;;;;;;;35.73;27.05;98627.56;5065757;28;19975;-70
2022/08/24 10:03:53;;;;;;;;;;;;;;;35.40;27.08;98615.22;5065696;28;20201;-70
2022/08/24 10:06:25;;;;;;;;;;;;;;;34.56;27.94;98609.03;5065682;28;19905;-70
2022/08/24 10:09:08;;;;;;;;;;;;;;;34.07;27.97;98610.31;5065514;28;19905;-70
2022/08/24 10:11:49;;;;;;;;;;;;;;;34.37;27.69;98604.03;5064680;28;19971;-70
2022/08/24 10:14:17;;;;;;;;;;;;;;;34.94;28.08;98602.63;5065463;28;19928;-70
2022/08/24 10:16:42;;;;;;;;;;;;;;;34.47;29.20;98599.19;5065426;28;19984;-70
2022/08/24 10:19:10;;;;;;;;;;;;;;;34.79;28.05;98607.16;5065401;28;19908;-70
2022/08/24 10:21:43;;;;;;;;;;;;;;;35.16;27.88;98596.28;5065332;28;19912;-70
2022/08/24 10:24:08;;;;;;;;;;;;;;;35.25;28.21;98584.22;5065285;28;19904;-70
2022/08/24 10:26:42;;;;;;;;;;;;;;;34.45;27.69;98584.84;5065250;28;19912;-70
2022/08/24 10:29:25;;;;;;;;;;;;;;;34.18;28.30;98582.59;5064920;28;20254;-70
2022/08/24 10:32:17;;;;;;;;;;;;;;;34.59;27.52;98586.81;5143253;27;20138;-70
2022/08/24 10:35:01;;;;;;;;;;;;;;;34.12;28.32;98580.56;5142948;28;20222;-70
2022/08/24 10:37:45;;;;;;;;;;;;;;;33.80;28.58;98583.41;5142958;28;19907;-70
2022/08/24 10:40:17;;;;;;;;;;;;;;;33.93;28.32;98567.34;5142838;28;19907;-70
2022/08/24 10:45:32;;;;;;;;;;;;;;;32.80;29.05;98559.31;5142766;28;19915;-70
2022/08/24 10:48:15;;;;;;;;;;;;;;;33.95;28.75;98571.63;5142713;27;20161;-70
2022/08/24 10:50:57;;;;;;;;;;;;;;;33.72;28.69;98565.16;5142607;27;19919;-70
2022/08/24 10:53:27;;;;;;;;;;;;;;;33.67;28.50;98561.28;5142664;27;20097;-70
2022/08/24 10:56:04;;;;;;;;;;;;;;;33.42;28.86;98554.19;5142558;27;20222;-70
2022/08/24 10:58:45;;;;;;;;;;;;;;;32.43;29.51;98545.31;5142460;27;20142;-70
2022/08/24 11:01:13;;;;;;;;;;;;;;;32.59;29.21;98542.59;5142463;27;19908;-70
2022/08/24 11:03:53;;;;;;;;;;;;;;;33.14;29.17;98559.16;5142436;27;19907;-70
2022/08/24 11:06:19;;;;;;;;;;;;;;;33.02;29.36;98545.03;5142469;27;19908;-70
2022/08/24 11:08:52;;;;;;;;;;;;;;;33.62;28.87;98552.78;5142616;27;19914;-70
2022/08/24 11:11:22;;;;;;;;;;;;;;;33.23;28.68;98535.44;5142197;27;19911;-70
2022/08/24 11:13:52;;;;;;;;;;;;;;;32.81;29.25;98530.19;5142225;27;19974;-70
2022/08/24 11:16:26;;;;;;;;;;;;;;;33.05;28.18;98541.09;5142138;27;19914;-70
2022/08/24 11:18:53;;;;;;;;;;;;;;;32.33;29.85;98531.00;5142157;27;19978;-70
2022/08/24 11:21:31;;;;;;;;;;;;;;;32.65;29.58;98533.75;5142364;27;19907;-70
2022/08/24 11:24:01;;;;;;;;;;;;;;;32.87;29.56;98538.56;5142010;27;20204;-70
2022/08/24 11:26:26;;;;;;;;;;;;;;;32.68;29.01;98530.69;5142193;27;19908;-70
2022/08/24 11:28:52;;;;;;;;;;;;;;;32.52;29.95;98532.56;5141876;27;20219;-70
2022/08/24 11:31:27;;;;;;;;;;;;;;;32.42;29.64;98530.00;5141756;27;19916;-70
2022/08/24 11:33:57;;;;;;;;;;;;;;;32.71;30.33;98519.44;5141801;27;20200;-70
2022/08/24 11:36:26;;;;;;;;;;;;;;;32.98;29.16;98521.00;5141837;27;19911;-70
2022/08/24 11:39:10;;;;;;;;;;;;;;;32.60;29.72;98518.94;5141660;27;19908;-70
2022/08/24 11:41:42;;;;;;;;;;;;;;;32.21;30.38;98510.50;5137810;28;20215;-70
2022/08/24 11:44:18;;;;;;;;;;;;;;;32.42;30.29;98527.28;5127955;28;19928;-70
2022/08/24 11:47:01;;;;;;;;;;;;;;;31.95;30.30;98508.94;5127886;28;19908;-70
2022/08/24 11:49:46;;;;;;;;;;;;;;;31.89;30.27;98505.00;5127872;28;19911;-70
2022/08/24 11:52:24;;;;;;;;;;;;;;;31.45;31.02;98503.47;5127763;28;19957;-70
2022/08/24 11:54:59;;;;;;;;;;;;;;;31.82;31.66;98514.84;5127738;28;19907;-70
2022/08/24 11:57:43;;;;;;;;;;;;;;;31.55;30.86;98512.34;5127672;28;19947;-70
2022/08/24 12:00:19;;;;;;;;;;;;;;;31.46;31.12;98513.31;5127627;28;19915;-70
2022/08/24 12:02:51;;;;;;;;;;;;;;;31.25;31.30;98504.66;5127592;28;20089;-70
2022/08/24 12:05:16;;;;;;;;;;;;;;;31.26;31.06;98502.81;5127627;28;19915;-70
2022/08/24 12:07:48;;;;;;;;;;;;;;;31.39;31.13;98495.09;5127469;28;19908;-70
2022/08/24 12:10:26;;;;;;;;;;;;;;;31.14;31.40;98491.38;5127628;28;19987;-70
2022/08/24 12:12:56;;;;;;;;;;;;;;;31.11;31.28;98486.25;5127404;28;19953;-70
2022/08/24 12:15:30;;;;;;;;;;;;;;;31.09;31.64;98482.81;5127412;28;19961;-70
2022/08/24 12:18:04;;;;;;;;;;;;;;;31.29;31.71;98491.66;5127331;28;19908;-70
2022/08/24 12:20:43;;;;;;;;;;;;;;;30.93;31.85;98488.16;5127490;28;20085;-70
2022/08/24 12:23:23;;;;;;;;;;;;;;;31.03;32.12;98497.06;5127171;28;19912;-70
2022/08/24 12:26:03;;;;;;;;;;;;;;;31.00;32.02;98491.94;5127106;27;19907;-70
2022/08/24 12:28:49;;;;;;;;;;;;;;;30.92;31.78;98486.47;5127027;28;19907;-70
2022/08/24 12:31:32;;;;;;;;;;;;;;;30.89;31.61;98470.47;5126485;28;20204;-70
2022/08/24 12:33:59;;;;;;;;;;;;;;;31.01;32.00;98480.06;5126948;28;20103;-70
2022/08/24 12:36:45;;;;;;;;;;;;;;;31.01;32.10;98480.06;5126948;28;19935;-70
2022/08/24 12:39:18;;;;;;;;;;;;;;;31.12;31.39;98485.22;5126572;28;19971;-70
2022/08/24 12:41:50;;;;;;;;;;;;;;;31.11;31.25;98480.81;5127076;28;19907;-70
2022/08/24 12:44:17;;;;;;;;;;;;;;;31.18;31.34;98484.56;5126785;27;19941;-70
2022/08/24 12:46:47;;;;;;;;;;;;;;;30.98;31.74;98475.78;5126700;28;19982;-70
2022/08/24 12:49:24;;;;;;;;;;;;;;;31.13;31.56;98481.50;5126653;28;19915;-69
2022/08/24 12:52:10;;;;;;;;;;;;;;;31.03;31.39;98480.75;5126564;28;19915;-70
2022/08/24 12:55:00;;;;;;;;;;;;;;;30.99;31.87;98482.94;5125554;28;20223;-70
2022/08/24 12:57:41;;;;;;;;;;;;;;;30.98;31.75;98481.22;5126563;28;19939;-70
2022/08/24 13:00:25;;;;;;;;;;;;;;;30.82;31.57;98481.13;5126442;28;19908;-70
2022/08/24 13:02:56;;;;;;;;;;;;;;;30.88;31.47;98491.34;5126662;28;20248;-70
2022/08/24 13:05:21;;;;;;;;;;;;;;;30.79;31.93;98469.72;5126334;28;19915;-70